Time;durP1;ratioP1;P1;durP2;ratioP2;P2;SDS_P1;SDS_P2;PMS_P1;PMS_P2;Temp;Humidity;BMP_temperature;BMP_pressure;BME280_temperature;BME280_humidity;BME280_pressure;Samples;Min_cycle;Max_cycle;Signal;HPM_P1;HPM_P2
2022/05/16 00:02:19;;;;;;;12.90;6.10;;;;;;;;;;5067418;28;20431;-62
2022/05/16 00:04:46;;;;;;;9.50;4.82;;;;;;;;;;5074223;28;20432;-62
2022/05/16 00:07:12;;;;;;;11.25;5.57;;;;;;;;;;5059123;28;20033;-62
2022/05/16 00:09:38;;;;;;;9.27;5.15;;;;;;;;;;5065608;28;20729;-63
2022/05/16 00:12:05;;;;;;;9.27;5.65;;;;;;;;;;5058428;28;20044;-62
2022/05/16 00:14:32;;;;;;;8.82;5.28;;;;;;;;;;5055510;28;20035;-62
2022/05/16 00:16:57;;;;;;;8.65;5.25;;;;;;;;;;5063468;28;20058;-62
2022/05/16 00:19:23;;;;;;;14.73;6.47;;;;;;;;;;5071886;28;20032;-62
2022/05/16 00:21:49;;;;;;;10.50;5.70;;;;;;;;;;5059893;28;20081;-62
2022/05/16 00:24:15;;;;;;;16.98;5.72;;;;;;;;;;5057050;28;20045;-62
2022/05/16 00:26:40;;;;;;;9.82;5.53;;;;;;;;;;5062191;28;20024;-62
2022/05/16 00:29:06;;;;;;;15.95;5.65;;;;;;;;;;5059764;28;20119;-62
2022/05/16 00:31:32;;;;;;;9.85;5.55;;;;;;;;;;5066013;28;20020;-63
2022/05/16 00:33:58;;;;;;;13.60;5.50;;;;;;;;;;5062748;28;20059;-62
2022/05/16 00:36:24;;;;;;;9.73;5.35;;;;;;;;;;5062875;28;20041;-62
2022/05/16 00:38:56;;;;;;;10.68;5.55;;;;;;;;;;5063009;28;20076;-62
2022/05/16 00:41:22;;;;;;;8.77;5.72;;;;;;;;;;5060239;28;20385;-62
2022/05/16 00:43:53;;;;;;;13.73;5.38;;;;;;;;;;5058581;28;20041;-62
2022/05/16 00:46:20;;;;;;;13.93;6.28;;;;;;;;;;5057740;28;20032;-62
2022/05/16 00:48:47;;;;;;;13.32;5.40;;;;;;;;;;5056461;28;20040;-62
2022/05/16 00:51:18;;;;;;;11.68;5.75;;;;;;;;;;5064635;28;20036;-62
2022/05/16 00:53:45;;;;;;;12.52;5.82;;;;;;;;;;5063378;28;20060;-62
2022/05/16 00:56:11;;;;;;;16.83;6.38;;;;;;;;;;5055090;28;20452;-62
2022/05/16 00:58:39;;;;;;;17.17;6.35;;;;;;;;;;5056229;28;20484;-62
2022/05/16 01:04:47;;;;;;;9.18;5.93;;;;;;;;;;5068182;28;20029;-62
2022/05/16 01:06:39;;;;;;;15.98;5.65;;;;;;;;;;5055380;28;20028;-62
2022/05/16 01:09:05;;;;;;;10.93;6.00;;;;;;;;;;5060043;28;20083;-62
2022/05/16 01:11:31;;;;;;;9.43;5.15;;;;;;;;;;5056636;28;20080;-62
2022/05/16 01:13:57;;;;;;;12.38;5.78;;;;;;;;;;5057399;28;20644;-62
2022/05/16 01:16:23;;;;;;;10.50;5.50;;;;;;;;;;5059847;28;20028;-62
2022/05/16 01:18:48;;;;;;;16.38;5.88;;;;;;;;;;5067225;28;20075;-62
2022/05/16 01:21:37;;;;;;;10.52;5.53;;;;;;;;;;5063879;28;20040;-62
2022/05/16 01:24:10;;;;;;;10.70;5.70;;;;;;;;;;5060346;28;20025;-62
2022/05/16 01:26:37;;;;;;;11.07;5.28;;;;;;;;;;5064230;28;20494;-62
2022/05/16 01:29:04;;;;;;;10.43;6.22;;;;;;;;;;5059803;28;20107;-62
2022/05/16 01:31:31;;;;;;;12.38;6.22;;;;;;;;;;5057715;28;20032;-62
2022/05/16 01:33:57;;;;;;;12.90;5.43;;;;;;;;;;5057750;28;20109;-62
2022/05/16 01:36:23;;;;;;;13.48;6.63;;;;;;;;;;5069955;28;20527;-62
2022/05/16 01:38:49;;;;;;;9.10;5.80;;;;;;;;;;5061378;28;20041;-62
2022/05/16 01:41:18;;;;;;;9.50;5.57;;;;;;;;;;5058108;28;20031;-62
2022/05/16 01:43:49;;;;;;;9.60;5.80;;;;;;;;;;5057050;28;20021;-62
2022/05/16 01:46:24;;;;;;;14.53;6.10;;;;;;;;;;5070107;28;20132;-62
2022/05/16 01:48:52;;;;;;;7.70;5.30;;;;;;;;;;5068152;28;20071;-62
2022/05/16 01:51:18;;;;;;;13.10;6.05;;;;;;;;;;5067641;28;20039;-62
2022/05/16 01:53:44;;;;;;;10.45;5.90;;;;;;;;;;5057026;28;20384;-62
2022/05/16 01:56:10;;;;;;;6.72;4.93;;;;;;;;;;5064410;28;20052;-61
2022/05/16 01:58:36;;;;;;;10.50;6.20;;;;;;;;;;5061516;28;20043;-62
2022/05/16 02:01:03;;;;;;;9.50;5.55;;;;;;;;;;5072345;28;20039;-62
2022/05/16 02:03:29;;;;;;;9.43;5.63;;;;;;;;;;5065384;28;20568;-62
2022/05/16 02:05:55;;;;;;;11.45;5.88;;;;;;;;;;5060151;28;20036;-62
2022/05/16 02:08:21;;;;;;;18.75;5.93;;;;;;;;;;5065818;28;20024;-62
2022/05/16 02:10:48;;;;;;;13.00;5.60;;;;;;;;;;5057598;28;20097;-62
2022/05/16 02:13:14;;;;;;;12.57;5.40;;;;;;;;;;5064591;28;20068;-62
2022/05/16 02:15:43;;;;;;;11.23;6.05;;;;;;;;;;5070317;28;20041;-62
2022/05/16 02:18:09;;;;;;;14.43;5.63;;;;;;;;;;5055659;28;20025;-62
2022/05/16 02:20:36;;;;;;;10.43;5.55;;;;;;;;;;5068013;28;20033;-62
2022/05/16 02:25:50;;;;;;;19.52;5.75;;;;;;;;;;5057411;28;20040;-62
2022/05/16 02:28:18;;;;;;;13.35;6.03;;;;;;;;;;5069351;28;20021;-62
2022/05/16 02:30:45;;;;;;;9.27;5.60;;;;;;;;;;5060711;28;20037;-62
2022/05/16 02:33:12;;;;;;;10.77;5.57;;;;;;;;;;5064604;28;20035;-62
2022/05/16 02:35:38;;;;;;;11.68;5.80;;;;;;;;;;5060305;28;20031;-62
2022/05/16 02:38:05;;;;;;;14.70;5.30;;;;;;;;;;5057874;28;20025;-62
2022/05/16 02:40:33;;;;;;;14.38;5.63;;;;;;;;;;5058148;28;20024;-62
2022/05/16 02:42:59;;;;;;;14.88;5.30;;;;;;;;;;5054550;28;20417;-62
2022/05/16 02:45:26;;;;;;;8.07;5.32;;;;;;;;;;5061102;28;20031;-62
2022/05/16 02:47:51;;;;;;;7.95;4.78;;;;;;;;;;5066552;28;20033;-62
2022/05/16 02:50:20;;;;;;;6.72;5.28;;;;;;;;;;5059280;28;20040;-62
2022/05/16 02:52:46;;;;;;;14.02;5.85;;;;;;;;;;5054519;28;20032;-62
2022/05/16 02:55:11;;;;;;;9.18;5.50;;;;;;;;;;5043733;28;20551;-62
2022/05/16 02:57:37;;;;;;;12.07;5.10;;;;;;;;;;5057278;28;20051;-62
2022/05/16 03:00:05;;;;;;;8.85;5.10;;;;;;;;;;5062974;28;20144;-62
2022/05/16 03:02:31;;;;;;;13.13;4.95;;;;;;;;;;5055684;28;20063;-61
2022/05/16 03:04:57;;;;;;;12.27;5.78;;;;;;;;;;5059156;28;20107;-62
2022/05/16 03:07:22;;;;;;;11.10;5.13;;;;;;;;;;5062063;28;20052;-62
2022/05/16 03:09:48;;;;;;;11.15;4.90;;;;;;;;;;5067557;28;20040;-62
2022/05/16 03:12:14;;;;;;;13.02;6.05;;;;;;;;;;5066926;28;20147;-62
2022/05/16 03:14:40;;;;;;;14.38;6.13;;;;;;;;;;5059401;28;20044;-62
2022/05/16 03:17:06;;;;;;;8.68;5.45;;;;;;;;;;5063621;28;20110;-61
2022/05/16 03:19:34;;;;;;;12.77;5.90;;;;;;;;;;5065959;28;20053;-62
2022/05/16 03:21:59;;;;;;;11.63;5.93;;;;;;;;;;5070106;28;20032;-61
2022/05/16 03:24:25;;;;;;;7.47;5.93;;;;;;;;;;5061498;28;20052;-62
2022/05/16 03:26:50;;;;;;;15.43;5.95;;;;;;;;;;5058892;28;20039;-61
2022/05/16 03:29:16;;;;;;;10.00;5.97;;;;;;;;;;5062033;28;20039;-62
2022/05/16 03:31:42;;;;;;;7.93;5.45;;;;;;;;;;5056587;28;20043;-61
2022/05/16 03:34:10;;;;;;;8.68;5.63;;;;;;;;;;5069935;28;20028;-61
2022/05/16 03:36:36;;;;;;;7.55;5.47;;;;;;;;;;5062429;28;20033;-61
2022/05/16 03:41:49;;;;;;;14.55;5.50;;;;;;;;;;5017740;28;20090;-62
2022/05/16 03:44:15;;;;;;;12.93;6.85;;;;;;;;;;5016285;28;20064;-61
2022/05/16 03:46:41;;;;;;;10.13;5.72;;;;;;;;;;5011221;28;20559;-62
2022/05/16 03:49:07;;;;;;;10.90;5.90;;;;;;;;;;5017844;28;20033;-61
2022/05/16 03:51:33;;;;;;;12.45;5.38;;;;;;;;;;5017749;28;20038;-61
2022/05/16 03:53:59;;;;;;;8.40;5.82;;;;;;;;;;5016752;28;20455;-61
2022/05/16 03:56:27;;;;;;;10.43;6.35;;;;;;;;;;5017738;28;20060;-61
2022/05/16 03:58:55;;;;;;;10.90;4.95;;;;;;;;;;5020533;28;20514;-61
2022/05/16 04:01:21;;;;;;;7.22;5.20;;;;;;;;;;5023108;28;20125;-61
2022/05/16 04:03:48;;;;;;;12.82;6.10;;;;;;;;;;5004215;28;20185;-62
2022/05/16 04:06:14;;;;;;;9.73;5.13;;;;;;;;;;5013862;28;20064;-61
2022/05/16 04:08:42;;;;;;;10.45;5.65;;;;;;;;;;5020645;28;20641;-61
2022/05/16 04:11:08;;;;;;;8.82;5.82;;;;;;;;;;5012253;28;20409;-61
2022/05/16 04:13:35;;;;;;;10.55;5.38;;;;;;;;;;5021198;28;20042;-61
2022/05/16 04:16:03;;;;;;;6.53;4.70;;;;;;;;;;5013417;28;20029;-61
2022/05/16 04:18:31;;;;;;;6.22;5.40;;;;;;;;;;5032690;28;20763;-61
2022/05/16 04:20:57;;;;;;;6.65;5.05;;;;;;;;;;5064900;28;20499;-61
2022/05/16 04:23:22;;;;;;;13.43;5.63;;;;;;;;;;5063204;28;20017;-62
2022/05/16 04:25:48;;;;;;;11.75;5.10;;;;;;;;;;5066434;28;20123;-61
2022/05/16 04:28:14;;;;;;;13.20;5.80;;;;;;;;;;5062069;28;20014;-61
2022/05/16 04:30:40;;;;;;;12.65;5.95;;;;;;;;;;5059114;28;20090;-61
2022/05/16 04:33:06;;;;;;;10.43;5.72;;;;;;;;;;5058747;28;20163;-61
2022/05/16 04:35:33;;;;;;;10.38;5.28;;;;;;;;;;5059724;28;20036;-61
2022/05/16 04:37:59;;;;;;;10.68;5.35;;;;;;;;;;5057181;28;20033;-62
2022/05/16 04:40:25;;;;;;;8.50;5.03;;;;;;;;;;5064655;28;20024;-62
2022/05/16 04:42:51;;;;;;;7.55;5.05;;;;;;;;;;5064543;28;20065;-61
2022/05/16 04:45:21;;;;;;;10.63;4.75;;;;;;;;;;5058606;28;20651;-61
2022/05/16 04:47:53;;;;;;;12.82;5.05;;;;;;;;;;5055274;28;20021;-62
2022/05/16 04:50:25;;;;;;;9.07;5.05;;;;;;;;;;5053138;28;20524;-62
2022/05/16 04:52:51;;;;;;;10.10;5.15;;;;;;;;;;5064016;28;20029;-62
2022/05/16 04:55:17;;;;;;;9.15;5.28;;;;;;;;;;5058743;28;20052;-61
2022/05/16 04:57:43;;;;;;;9.27;4.65;;;;;;;;;;5060923;28;20041;-61
2022/05/16 05:00:11;;;;;;;10.30;4.80;;;;;;;;;;5072328;28;20032;-59
2022/05/16 05:02:39;;;;;;;10.38;5.30;;;;;;;;;;5054743;28;20021;-61
2022/05/16 05:05:07;;;;;;;11.13;5.22;;;;;;;;;;5057362;28;20765;-61
2022/05/16 05:07:33;;;;;;;6.35;5.03;;;;;;;;;;5065232;28;20469;-61
2022/05/16 05:15:27;;;;;;;9.27;4.57;;;;;;;;;;5061365;28;20037;-61
2022/05/16 05:17:52;;;;;;;8.30;5.75;;;;;;;;;;5056353;28;20041;-61
2022/05/16 05:20:19;;;;;;;12.07;5.80;;;;;;;;;;5063556;28;20051;-61
2022/05/16 05:22:46;;;;;;;11.85;5.57;;;;;;;;;;5060255;28;20037;-61
2022/05/16 05:25:17;;;;;;;8.75;4.57;;;;;;;;;;5053430;28;20123;-61
2022/05/16 05:27:43;;;;;;;11.63;5.70;;;;;;;;;;5055465;28;20037;-61
2022/05/16 05:30:12;;;;;;;13.25;5.30;;;;;;;;;;5058282;28;20029;-60
2022/05/16 05:32:38;;;;;;;14.18;5.13;;;;;;;;;;5059118;28;20032;-61
2022/05/16 05:35:05;;;;;;;9.43;4.32;;;;;;;;;;5056273;28;20028;-61
2022/05/16 05:37:31;;;;;;;8.73;4.85;;;;;;;;;;5057726;28;20194;-61
2022/05/16 05:40:01;;;;;;;16.35;5.35;;;;;;;;;;5055888;28;20485;-61
2022/05/16 05:42:28;;;;;;;11.35;4.88;;;;;;;;;;5047772;28;20037;-61
2022/05/16 05:44:54;;;;;;;11.30;4.32;;;;;;;;;;5065535;28;20058;-61
2022/05/16 05:47:21;;;;;;;13.23;5.18;;;;;;;;;;5061016;28;20029;-61
2022/05/16 05:49:47;;;;;;;11.00;4.57;;;;;;;;;;5062852;28;20060;-61
2022/05/16 05:52:15;;;;;;;12.43;4.47;;;;;;;;;;5050962;28;20142;-61
2022/05/16 05:54:44;;;;;;;9.57;4.57;;;;;;;;;;5061722;28;20124;-61
2022/05/16 05:57:11;;;;;;;11.77;4.57;;;;;;;;;;5060383;28;20136;-61
2022/05/16 05:59:36;;;;;;;8.48;4.78;;;;;;;;;;5058995;28;20048;-61
2022/05/16 06:02:04;;;;;;;27.20;5.47;;;;;;;;;;5057943;28;20434;-61
2022/05/16 06:04:29;;;;;;;13.48;4.30;;;;;;;;;;5051015;28;20552;-61
2022/05/16 06:06:55;;;;;;;15.25;3.97;;;;;;;;;;5051029;28;20125;-61
2022/05/16 06:09:21;;;;;;;10.57;4.45;;;;;;;;;;5058492;28;20036;-61
2022/05/16 06:11:48;;;;;;;13.95;4.90;;;;;;;;;;5064301;28;20029;-60
2022/05/16 06:14:16;;;;;;;8.73;3.50;;;;;;;;;;5057331;28;20104;-61
2022/05/16 06:16:42;;;;;;;10.52;3.50;;;;;;;;;;5058086;28;20033;-61
2022/05/16 06:19:08;;;;;;;12.85;4.53;;;;;;;;;;5056542;28;20039;-61
2022/05/16 06:21:35;;;;;;;25.48;15.20;;;;;;;;;;5059461;28;20066;-61
2022/05/16 06:24:02;;;;;;;56.08;32.58;;;;;;;;;;5060993;28;20033;-61
2022/05/16 06:26:28;;;;;;;25.70;11.98;;;;;;;;;;5063960;28;20119;-61
2022/05/16 06:28:57;;;;;;;61.45;27.02;;;;;;;;;;5042755;28;20037;-61
2022/05/16 06:31:23;;;;;;;9.77;4.07;;;;;;;;;;5065631;28;20068;-61
2022/05/16 06:33:49;;;;;;;15.93;8.18;;;;;;;;;;5049934;28;20108;-61
2022/05/16 06:36:16;;;;;;;17.95;6.25;;;;;;;;;;5054304;28;20323;-61
2022/05/16 06:38:42;;;;;;;80.45;8.98;;;;;;;;;;5058734;28;20397;-61
2022/05/16 06:41:08;;;;;;;6.93;3.30;;;;;;;;;;5069114;28;20153;-61
2022/05/16 06:43:37;;;;;;;8.43;3.53;;;;;;;;;;5069593;28;20104;-61
2022/05/16 06:46:03;;;;;;;9.02;3.50;;;;;;;;;;5067340;28;20366;-62
2022/05/16 06:48:29;;;;;;;24.15;5.07;;;;;;;;;;5063570;28;20062;-61
2022/05/16 06:50:56;;;;;;;32.85;6.00;;;;;;;;;;5070522;28;20067;-61
2022/05/16 06:53:26;;;;;;;11.43;3.45;;;;;;;;;;5068679;28;20036;-62
2022/05/16 06:55:52;;;;;;;9.60;3.40;;;;;;;;;;5054753;28;20040;-62
2022/05/16 06:58:18;;;;;;;15.65;3.58;;;;;;;;;;5066651;28;20027;-62
2022/05/16 07:00:44;;;;;;;10.57;3.25;;;;;;;;;;5058992;28;20024;-61
2022/05/16 07:03:11;;;;;;;11.30;3.15;;;;;;;;;;5057052;28;20036;-61
2022/05/16 07:05:37;;;;;;;8.68;3.25;;;;;;;;;;5058833;28;20020;-61
2022/05/16 07:08:02;;;;;;;30.20;4.30;;;;;;;;;;5061944;28;20031;-61
2022/05/16 07:10:28;;;;;;;8.70;3.20;;;;;;;;;;5068879;28;20075;-62
2022/05/16 07:12:54;;;;;;;8.70;3.28;;;;;;;;;;5065689;28;20490;-61
2022/05/16 07:15:20;;;;;;;28.15;4.20;;;;;;;;;;5067726;28;20040;-62
2022/05/16 07:17:47;;;;;;;14.43;3.10;;;;;;;;;;5058184;28;20036;-62
2022/05/16 07:20:13;;;;;;;22.58;4.40;;;;;;;;;;5058645;28;20028;-61
2022/05/16 07:22:41;;;;;;;8.90;4.00;;;;;;;;;;5069997;28;20484;-61
2022/05/16 07:25:08;;;;;;;11.57;4.88;;;;;;;;;;5057784;28;20078;-62
2022/05/16 07:30:18;;;;;;;10.38;3.30;;;;;;;;;;5053083;28;20375;-62
2022/05/16 07:32:45;;;;;;;26.27;4.22;;;;;;;;;;5053149;28;20160;-62
2022/05/16 07:35:17;;;;;;;11.82;3.47;;;;;;;;;;5057872;28;20059;-62
2022/05/16 07:37:44;;;;;;;13.73;3.85;;;;;;;;;;5065651;28;20021;-61
2022/05/16 07:40:12;;;;;;;14.43;3.17;;;;;;;;;;5059065;28;20020;-61
2022/05/16 07:42:38;;;;;;;12.13;2.80;;;;;;;;;;5062411;28;20021;-62
2022/05/16 07:45:06;;;;;;;10.00;2.70;;;;;;;;;;5067713;28;20373;-62
2022/05/16 07:47:32;;;;;;;50.42;6.70;;;;;;;;;;5056361;28;20024;-62
2022/05/16 07:49:59;;;;;;;11.30;3.20;;;;;;;;;;5065744;28;20030;-61
2022/05/16 07:52:26;;;;;;;8.27;3.38;;;;;;;;;;5066129;28;20021;-62
2022/05/16 07:54:52;;;;;;;11.77;3.22;;;;;;;;;;5055422;28;20080;-62
2022/05/16 07:57:19;;;;;;;9.43;3.35;;;;;;;;;;5060820;28;20051;-62
2022/05/16 07:59:46;;;;;;;13.38;2.67;;;;;;;;;;5059512;28;20028;-62
2022/05/16 08:02:13;;;;;;;5.10;2.70;;;;;;;;;;5054412;28;20104;-61
2022/05/16 08:04:39;;;;;;;14.98;2.47;;;;;;;;;;5056717;28;20021;-62
2022/05/16 08:07:06;;;;;;;8.05;2.97;;;;;;;;;;5069839;28;20108;-62
2022/05/16 08:12:28;;;;;;;7.65;2.78;;;;;;;;;;5072172;28;20024;-61
2022/05/16 08:14:55;;;;;;;13.23;3.60;;;;;;;;;;5058206;28;20210;-62
2022/05/16 08:17:22;;;;;;;21.63;3.70;;;;;;;;;;5063637;28;20025;-62
2022/05/16 08:19:48;;;;;;;7.30;2.90;;;;;;;;;;5061437;28;20059;-62
2022/05/16 08:22:15;;;;;;;9.18;2.80;;;;;;;;;;5068533;28;20024;-62
2022/05/16 08:24:41;;;;;;;13.38;2.78;;;;;;;;;;5060721;28;20392;-63
2022/05/16 08:27:07;;;;;;;10.80;2.83;;;;;;;;;;5067501;28;20488;-62
2022/05/16 08:29:33;;;;;;;9.75;3.00;;;;;;;;;;5056372;28;20740;-62
2022/05/16 08:31:59;;;;;;;18.20;3.67;;;;;;;;;;5057320;28;20039;-62
2022/05/16 08:34:25;;;;;;;12.27;3.28;;;;;;;;;;5061733;28;20388;-62
2022/05/16 08:42:34;;;;;;;12.23;2.90;;;;;;;;;;5058548;28;20041;-63
2022/05/16 08:45:03;;;;;;;8.27;2.60;;;;;;;;;;5060010;28;20056;-62
2022/05/16 08:47:52;;;;;;;14.95;2.80;;;;;;;;;;5064292;28;20031;-62
2022/05/16 08:50:23;;;;;;;18.98;2.88;;;;;;;;;;5059042;28;20092;-62
2022/05/16 08:52:57;;;;;;;9.40;2.80;;;;;;;;;;5061954;28;20110;-60
2022/05/16 08:55:23;;;;;;;13.80;2.97;;;;;;;;;;5059536;28;20151;-62
2022/05/16 08:57:58;;;;;;;7.45;2.17;;;;;;;;;;5059607;28;20496;-63
2022/05/16 09:00:51;;;;;;;8.02;2.53;;;;;;;;;;5054164;28;20024;-63
2022/05/16 09:03:24;;;;;;;6.97;2.63;;;;;;;;;;5052378;28;20120;-62
2022/05/16 09:05:59;;;;;;;6.22;2.30;;;;;;;;;;5059778;28;20494;-62
2022/05/16 09:08:59;;;;;;;9.52;2.38;;;;;;;;;;5059583;28;20114;-62
2022/05/16 09:11:30;;;;;;;8.63;2.25;;;;;;;;;;5057850;28;20043;-62
2022/05/16 09:14:05;;;;;;;12.20;2.95;;;;;;;;;;5061181;28;20464;-63
2022/05/16 09:16:38;;;;;;;13.75;3.15;;;;;;;;;;5062595;28;20123;-63
2022/05/16 09:19:10;;;;;;;9.18;2.35;;;;;;;;;;5037803;28;20029;-63
2022/05/16 09:21:51;;;;;;;5.50;2.13;;;;;;;;;;5065607;28;20544;-63
2022/05/16 09:24:44;;;;;;;9.15;2.50;;;;;;;;;;5059537;28;20082;-63
2022/05/16 09:30:18;;;;;;;10.73;2.25;;;;;;;;;;5059862;28;20104;-62
2022/05/16 09:32:57;;;;;;;6.47;1.80;;;;;;;;;;5058470;28;20141;-63
2022/05/16 09:35:49;;;;;;;4.18;2.10;;;;;;;;;;5048666;28;20136;-63
2022/05/16 09:38:15;;;;;;;11.70;2.25;;;;;;;;;;5058906;28;20039;-62
2022/05/16 09:41:01;;;;;;;5.15;1.85;;;;;;;;;;5057915;28;20020;-62
2022/05/16 09:43:32;;;;;;;8.43;2.03;;;;;;;;;;5053247;28;20024;-63
2022/05/16 09:46:17;;;;;;;15.23;2.90;;;;;;;;;;5055173;28;20500;-62
2022/05/16 09:48:43;;;;;;;10.77;2.50;;;;;;;;;;5057658;28;20051;-62
2022/05/16 09:51:09;;;;;;;7.35;1.90;;;;;;;;;;5063722;28;20032;-63
2022/05/16 09:53:38;;;;;;;8.30;2.20;;;;;;;;;;5061309;28;20032;-63
2022/05/16 09:56:16;;;;;;;7.65;2.00;;;;;;;;;;5056282;28;20036;-63
2022/05/16 09:58:54;;;;;;;9.05;2.50;;;;;;;;;;5059025;28;20511;-63
2022/05/16 10:01:43;;;;;;;6.07;2.40;;;;;;;;;;5052400;28;20028;-63
2022/05/16 10:04:14;;;;;;;9.32;2.70;;;;;;;;;;5056850;28;20358;-60
2022/05/16 10:06:44;;;;;;;10.45;2.78;;;;;;;;;;5057551;28;20040;-63
2022/05/16 10:09:26;;;;;;;11.60;2.63;;;;;;;;;;5065144;28;20028;-63
2022/05/16 10:11:53;;;;;;;9.02;2.60;;;;;;;;;;5059327;28;20031;-63
2022/05/16 10:14:18;;;;;;;10.27;2.40;;;;;;;;;;5064784;28;20146;-63
2022/05/16 10:16:48;;;;;;;9.40;2.50;;;;;;;;;;5059560;28;20111;-62
2022/05/16 10:19:19;;;;;;;9.32;2.92;;;;;;;;;;5065164;28;20036;-62
2022/05/16 10:21:55;;;;;;;13.20;2.53;;;;;;;;;;5057198;28;20032;-63
2022/05/16 10:24:24;;;;;;;9.35;2.38;;;;;;;;;;5065393;28;20036;-62
2022/05/16 10:27:01;;;;;;;6.00;2.25;;;;;;;;;;5060067;28;20404;-62
2022/05/16 10:29:31;;;;;;;7.93;2.45;;;;;;;;;;5063762;28;20036;-63
2022/05/16 10:34:57;;;;;;;8.75;2.53;;;;;;;;;;5069323;28;20036;-63
2022/05/16 10:37:25;;;;;;;12.32;2.40;;;;;;;;;;5065020;28;20033;-63
2022/05/16 10:39:59;;;;;;;8.85;2.58;;;;;;;;;;5071282;28;20070;-63
2022/05/16 10:42:38;;;;;;;9.40;2.60;;;;;;;;;;5061216;28;20103;-63
2022/05/16 10:45:16;;;;;;;10.40;2.40;;;;;;;;;;5061988;28;20112;-63
2022/05/16 10:48:06;;;;;;;20.02;2.85;;;;;;;;;;5059601;28;20374;-62
2022/05/16 10:51:03;;;;;;;14.65;3.45;;;;;;;;;;5054129;28;20539;-63
2022/05/16 10:53:34;;;;;;;14.93;3.40;;;;;;;;;;4987453;28;20515;-62
2022/05/16 10:56:06;;;;;;;;;;;;;;;;;;4992353;28;20725;-63
2022/05/16 10:58:58;;;;;;;10.93;3.33;;;;;;;;;;4984173;28;19921;-63
2022/05/16 11:01:40;;;;;;;9.18;2.55;;;;;;;;;;4984901;28;20033;-64
2022/05/16 11:04:07;;;;;;;10.60;2.53;;;;;;;;;;4987785;28;20446;-63
2022/05/16 11:06:58;;;;;;;6.72;2.70;;;;;;;;;;4989662;28;20033;-63
2022/05/16 11:09:33;;;;;;;12.77;2.47;;;;;;;;;;4989783;28;20045;-64
2022/05/16 11:12:12;;;;;;;6.97;2.65;;;;;;;;;;4988704;28;20324;-63
2022/05/16 11:14:51;;;;;;;4.45;1.92;;;;;;;;;;4984313;28;20034;-64
2022/05/16 11:17:50;;;;;;;11.43;2.47;;;;;;;;;;4984330;28;20038;-63
2022/05/16 11:20:42;;;;;;;12.45;2.60;;;;;;;;;;4993602;28;20645;-63
2022/05/16 11:23:25;;;;;;;6.22;2.35;;;;;;;;;;4966353;28;20527;-63
2022/05/16 11:26:29;;;;;;;12.85;2.22;;;;;;;;;;4985795;28;20478;-63
2022/05/16 11:29:17;;;;;;;5.35;2.22;;;;;;;;;;4984569;28;20041;-63
2022/05/16 11:32:21;;;;;;;7.03;2.50;;;;;;;;;;5064428;28;20021;-63
2022/05/16 11:35:16;;;;;;;5.18;2.17;;;;;;;;;;5067463;28;20483;-63
2022/05/16 11:38:08;;;;;;;8.15;2.45;;;;;;;;;;5059486;28;20508;-64
2022/05/16 11:40:46;;;;;;;6.80;2.40;;;;;;;;;;5058624;28;20025;-63
2022/05/16 11:43:28;;;;;;;8.23;1.92;;;;;;;;;;5068065;28;20032;-64
2022/05/16 11:45:59;;;;;;;;;;;;;;;;;;5060059;28;20047;-64
2022/05/16 11:48:44;;;;;;;7.57;2.00;;;;;;;;;;5074159;28;19919;-63
2022/05/16 11:51:28;;;;;;;8.20;2.15;;;;;;;;;;5068095;28;20270;-64
2022/05/16 11:53:58;;;;;;;12.55;2.25;;;;;;;;;;5044241;28;20083;-64
2022/05/16 12:02:40;;;;;;;6.18;2.05;;;;;;;;;;5053327;28;20028;-63
2022/05/16 12:05:11;;;;;;;7.57;2.60;;;;;;;;;;5055849;28;20416;-64
2022/05/16 12:07:42;;;;;;;4.22;2.25;;;;;;;;;;5059569;28;20028;-64
2022/05/16 12:10:10;;;;;;;4.78;2.22;;;;;;;;;;5059715;28;20040;-63
2022/05/16 12:12:45;;;;;;;7.38;1.80;;;;;;;;;;5056282;28;20094;-63
2022/05/16 12:15:17;;;;;;;6.28;1.90;;;;;;;;;;5055168;28;20039;-64
2022/05/16 12:17:58;;;;;;;11.93;2.28;;;;;;;;;;5063296;28;20384;-64
2022/05/16 12:21:01;;;;;;;6.80;2.20;;;;;;;;;;5058388;28;20397;-64
2022/05/16 12:23:48;;;;;;;3.83;1.63;;;;;;;;;;4964022;28;20269;-64
2022/05/16 12:26:26;;;;;;;4.82;1.92;;;;;;;;;;4959558;28;20049;-64
2022/05/16 12:29:13;;;;;;;6.10;2.20;;;;;;;;;;4965253;28;20031;-64
2022/05/16 12:31:49;;;;;;;3.47;1.80;;;;;;;;;;4966073;28;20042;-64
2022/05/16 12:34:33;;;;;;;7.00;2.25;;;;;;;;;;4962998;28;20035;-63
2022/05/16 12:37:01;;;;;;;7.32;1.83;;;;;;;;;;4963758;28;20035;-64
2022/05/16 12:40:03;;;;;;;5.97;2.00;;;;;;;;;;4969226;28;20534;-64
2022/05/16 12:43:00;;;;;;;7.75;1.90;;;;;;;;;;4942119;28;20074;-64
2022/05/16 12:45:54;;;;;;;7.50;1.65;;;;;;;;;;4945633;28;20034;-64
2022/05/16 12:48:52;;;;;;;7.53;2.28;;;;;;;;;;4947373;28;20050;-64
2022/05/16 12:51:37;;;;;;;9.07;2.63;;;;;;;;;;4948327;28;20031;-65
2022/05/16 12:54:28;;;;;;;7.57;2.17;;;;;;;;;;4943666;28;20043;-65
2022/05/16 12:57:00;;;;;;;9.50;2.43;;;;;;;;;;4945012;28;20031;-64
2022/05/16 12:59:47;;;;;;;7.35;2.58;;;;;;;;;;4965023;28;20120;-64
2022/05/16 13:02:26;;;;;;;14.00;2.38;;;;;;;;;;4992217;28;20055;-63
2022/05/16 13:05:13;;;;;;;6.90;2.22;;;;;;;;;;4997033;28;20042;-64
2022/05/16 13:07:45;;;;;;;8.23;2.55;;;;;;;;;;4996429;28;20481;-64
2022/05/16 13:10:51;;;;;;;9.10;2.67;;;;;;;;;;5000408;28;20026;-63
2022/05/16 13:13:35;;;;;;;7.43;2.17;;;;;;;;;;4997936;28;20077;-64
2022/05/16 13:16:36;;;;;;;3.88;2.15;;;;;;;;;;4995401;28;20442;-64
2022/05/16 13:19:08;;;;;;;6.03;2.35;;;;;;;;;;4960964;28;20045;-64
2022/05/16 13:21:38;;;;;;;9.45;2.20;;;;;;;;;;4983521;28;20029;-64
2022/05/16 13:24:09;;;;;;;8.25;2.15;;;;;;;;;;4988699;28;20488;-64
2022/05/16 13:29:22;;;;;;;10.15;2.20;;;;;;;;;;4979616;28;20045;-64
2022/05/16 13:31:54;;;;;;;7.07;2.10;;;;;;;;;;4984368;28;20042;-64
2022/05/16 13:34:28;;;;;;;6.38;2.88;;;;;;;;;;4983155;28;20030;-65
2022/05/16 13:36:54;;;;;;;9.63;2.55;;;;;;;;;;4987995;28;20054;-65
2022/05/16 13:39:20;;;;;;;6.45;2.08;;;;;;;;;;4984279;28;20499;-64
2022/05/16 13:41:57;;;;;;;6.05;2.45;;;;;;;;;;4980546;28;20034;-64
2022/05/16 13:44:23;;;;;;;6.57;2.40;;;;;;;;;;4979819;28;20489;-64
2022/05/16 13:46:52;;;;;;;7.85;2.30;;;;;;;;;;4980666;28;20118;-64
2022/05/16 13:49:18;;;;;;;14.60;2.58;;;;;;;;;;4983522;28;20038;-64
2022/05/16 13:51:52;;;;;;;11.73;2.65;;;;;;;;;;4981675;28;20078;-65
2022/05/16 13:54:22;;;;;;;8.85;2.28;;;;;;;;;;4981385;28;20080;-64
2022/05/16 13:56:58;;;;;;;13.55;2.70;;;;;;;;;;5044405;28;20045;-64
2022/05/16 13:59:30;;;;;;;7.90;2.00;;;;;;;;;;5057383;28;20037;-64
2022/05/16 14:02:08;;;;;;;8.48;2.97;;;;;;;;;;5058850;28;20020;-64
2022/05/16 14:04:46;;;;;;;9.70;2.20;;;;;;;;;;5062881;28;20032;-65
2022/05/16 14:07:17;;;;;;;14.93;3.33;;;;;;;;;;5054772;28;20075;-64
2022/05/16 14:09:59;;;;;;;11.20;2.70;;;;;;;;;;5058137;28;20085;-65
2022/05/16 14:12:35;;;;;;;18.92;2.67;;;;;;;;;;5058317;28;20037;-64
2022/05/16 14:15:07;;;;;;;8.55;2.60;;;;;;;;;;5058329;28;20033;-65
2022/05/16 14:17:43;;;;;;;8.07;2.70;;;;;;;;;;5062107;28;20020;-64
2022/05/16 14:20:18;;;;;;;11.85;2.80;;;;;;;;;;5056135;28;20074;-65
2022/05/16 14:22:49;;;;;;;11.88;2.55;;;;;;;;;;5052290;28;20397;-64
2022/05/16 14:25:37;;;;;;;8.82;2.38;;;;;;;;;;5061493;28;20053;-66
2022/05/16 14:28:15;;;;;;;11.07;3.58;;;;;;;;;;5058518;28;20044;-65
2022/05/16 14:31:00;;;;;;;11.00;3.30;;;;;;;;;;5056329;28;20043;-64
2022/05/16 14:33:32;;;;;;;12.43;3.30;;;;;;;;;;5057601;28;20071;-64
2022/05/16 14:36:01;;;;;;;11.60;2.92;;;;;;;;;;5063914;28;20043;-64
2022/05/16 14:38:28;;;;;;;8.75;3.17;;;;;;;;;;5057243;28;20037;-65
2022/05/16 14:41:13;;;;;;;11.75;3.83;;;;;;;;;;5059593;28;20481;-64
2022/05/16 14:43:39;;;;;;;11.93;3.97;;;;;;;;;;5060944;28;20765;-65
2022/05/16 14:46:45;;;;;;;15.05;4.50;;;;;;;;;;5054288;28;20044;-64
2022/05/16 14:49:13;;;;;;;19.35;5.25;;;;;;;;;;5058863;28;20032;-65
2022/05/16 14:51:41;;;;;;;22.40;6.47;;;;;;;;;;5054833;28;20033;-65
2022/05/16 14:54:23;;;;;;;17.23;5.22;;;;;;;;;;5046370;28;20453;-64
2022/05/16 14:56:50;;;;;;;11.15;5.00;;;;;;;;;;5054334;28;20044;-66
2022/05/16 14:59:15;;;;;;;13.02;5.32;;;;;;;;;;5063908;28;20115;-64
2022/05/16 15:04:26;;;;;;;16.25;3.95;;;;;;;;;;5057705;28;20033;-65
2022/05/16 15:06:52;;;;;;;12.18;3.58;;;;;;;;;;5072009;28;20042;-65
2022/05/16 15:09:20;;;;;;;15.68;3.47;;;;;;;;;;5063447;28;20028;-65
2022/05/16 15:11:58;;;;;;;17.67;3.45;;;;;;;;;;5068903;28;20477;-65
2022/05/16 15:14:27;;;;;;;10.40;3.63;;;;;;;;;;5058911;28;20041;-64
2022/05/16 15:16:54;;;;;;;13.05;3.15;;;;;;;;;;5062699;28;20037;-64
2022/05/16 15:19:20;;;;;;;13.38;3.55;;;;;;;;;;5069490;28;20056;-65
2022/05/16 15:21:47;;;;;;;12.65;3.20;;;;;;;;;;5063762;28;20137;-64
2022/05/16 15:24:29;;;;;;;16.10;3.35;;;;;;;;;;5072178;28;20380;-64
2022/05/16 15:26:55;;;;;;;8.05;3.25;;;;;;;;;;5064262;28;20499;-64
2022/05/16 15:29:20;;;;;;;12.55;3.20;;;;;;;;;;5058068;28;20041;-65
2022/05/16 15:31:46;;;;;;;16.80;3.38;;;;;;;;;;5063655;28;20032;-64
2022/05/16 15:34:12;;;;;;;10.50;3.10;;;;;;;;;;5065074;28;20040;-64
2022/05/16 15:36:38;;;;;;;11.55;2.80;;;;;;;;;;5067880;28;20051;-64
2022/05/16 15:39:08;;;;;;;12.68;3.72;;;;;;;;;;5067219;28;20083;-65
2022/05/16 15:41:33;;;;;;;11.35;3.15;;;;;;;;;;5062744;28;20122;-65
2022/05/16 15:43:59;;;;;;;12.50;3.58;;;;;;;;;;5057526;28;20021;-65